sensor_id;sensor_type;location;lat;lon;timestamp;P1;durP1;ratioP1;P2;durP2;ratioP2
25449;SDS011;13371;52.080;5.624;2023-01-04T00:01:02;5.90;;;2.22;;
25449;SDS011;13371;52.080;5.624;2023-01-04T00:03:29;5.80;;;1.92;;
25449;SDS011;13371;52.080;5.624;2023-01-04T00:05:59;6.78;;;2.28;;
25449;SDS011;13371;52.080;5.624;2023-01-04T00:08:28;8.40;;;2.60;;
25449;SDS011;13371;52.080;5.624;2023-01-04T00:11:00;6.30;;;2.22;;
25449;SDS011;13371;52.080;5.624;2023-01-04T00:13:26;8.05;;;2.83;;
25449;SDS011;13371;52.080;5.624;2023-01-04T00:15:52;9.07;;;2.35;;
25449;SDS011;13371;52.080;5.624;2023-01-04T00:18:17;5.97;;;2.10;;
25449;SDS011;13371;52.080;5.624;2023-01-04T00:20:43;7.82;;;2.20;;
25449;SDS011;13371;52.080;5.624;2023-01-04T00:23:08;8.23;;;2.03;;
25449;SDS011;13371;52.080;5.624;2023-01-04T00:25:36;8.45;;;2.10;;
25449;SDS011;13371;52.080;5.624;2023-01-04T00:28:05;6.85;;;2.47;;
25449;SDS011;13371;52.080;5.624;2023-01-04T00:30:31;8.75;;;2.05;;
25449;SDS011;13371;52.080;5.624;2023-01-04T00:32:57;13.75;;;2.60;;
25449;SDS011;13371;52.080;5.624;2023-01-04T00:35:23;6.28;;;2.63;;
25449;SDS011;13371;52.080;5.624;2023-01-04T00:37:49;10.40;;;2.33;;
25449;SDS011;13371;52.080;5.624;2023-01-04T00:40:14;7.68;;;2.35;;
25449;SDS011;13371;52.080;5.624;2023-01-04T00:42:40;8.00;;;1.90;;
25449;SDS011;13371;52.080;5.624;2023-01-04T00:45:06;5.72;;;2.33;;
25449;SDS011;13371;52.080;5.624;2023-01-04T00:47:31;6.07;;;2.42;;
25449;SDS011;13371;52.080;5.624;2023-01-04T00:49:57;8.38;;;2.80;;
25449;SDS011;13371;52.080;5.624;2023-01-04T00:52:23;7.97;;;2.33;;
25449;SDS011;13371;52.080;5.624;2023-01-04T00:54:48;5.97;;;2.17;;
25449;SDS011;13371;52.080;5.624;2023-01-04T00:57:14;6.20;;;2.20;;
25449;SDS011;13371;52.080;5.624;2023-01-04T00:59:39;8.23;;;1.92;;
25449;SDS011;13371;52.080;5.624;2023-01-04T01:02:05;9.65;;;2.42;;
25449;SDS011;13371;52.080;5.624;2023-01-04T01:04:31;4.07;;;1.80;;
25449;SDS011;13371;52.080;5.624;2023-01-04T01:06:56;5.63;;;2.08;;
25449;SDS011;13371;52.080;5.624;2023-01-04T01:09:22;9.05;;;2.40;;
25449;SDS011;13371;52.080;5.624;2023-01-04T01:11:48;7.28;;;2.55;;
25449;SDS011;13371;52.080;5.624;2023-01-04T01:14:18;5.05;;;2.22;;
25449;SDS011;13371;52.080;5.624;2023-01-04T01:16:45;6.97;;;2.15;;
25449;SDS011;13371;52.080;5.624;2023-01-04T01:19:11;3.00;;;1.60;;
25449;SDS011;13371;52.080;5.624;2023-01-04T01:21:37;11.52;;;2.25;;
25449;SDS011;13371;52.080;5.624;2023-01-04T01:24:03;6.88;;;2.97;;
25449;SDS011;13371;52.080;5.624;2023-01-04T01:26:29;7.28;;;2.10;;
25449;SDS011;13371;52.080;5.624;2023-01-04T01:28:55;5.68;;;2.08;;
25449;SDS011;13371;52.080;5.624;2023-01-04T01:31:24;6.57;;;2.10;;
25449;SDS011;13371;52.080;5.624;2023-01-04T01:33:52;5.43;;;1.92;;
25449;SDS011;13371;52.080;5.624;2023-01-04T01:36:20;5.93;;;2.38;;
25449;SDS011;13371;52.080;5.624;2023-01-04T01:38:47;4.63;;;2.55;;
25449;SDS011;13371;52.080;5.624;2023-01-04T01:41:23;3.97;;;1.73;;
25449;SDS011;13371;52.080;5.624;2023-01-04T01:43:55;8.18;;;2.13;;
25449;SDS011;13371;52.080;5.624;2023-01-04T01:48:57;4.05;;;2.20;;
25449;SDS011;13371;52.080;5.624;2023-01-04T01:51:26;7.60;;;1.95;;
25449;SDS011;13371;52.080;5.624;2023-01-04T01:53:54;5.40;;;2.08;;
25449;SDS011;13371;52.080;5.624;2023-01-04T01:56:26;2.33;;;1.50;;
25449;SDS011;13371;52.080;5.624;2023-01-04T01:58:54;5.30;;;2.00;;
25449;SDS011;13371;52.080;5.624;2023-01-04T02:01:22;3.70;;;1.90;;
25449;SDS011;13371;52.080;5.624;2023-01-04T02:03:48;3.85;;;1.85;;
25449;SDS011;13371;52.080;5.624;2023-01-04T02:06:17;3.55;;;2.20;;
25449;SDS011;13371;52.080;5.624;2023-01-04T02:08:46;3.60;;;2.15;;
25449;SDS011;13371;52.080;5.624;2023-01-04T02:11:13;6.05;;;2.20;;
25449;SDS011;13371;52.080;5.624;2023-01-04T02:13:39;4.60;;;2.25;;
25449;SDS011;13371;52.080;5.624;2023-01-04T02:47:03;4.55;;;3.47;;
25449;SDS011;13371;52.080;5.624;2023-01-04T02:49:32;8.15;;;3.88;;
25449;SDS011;13371;52.080;5.624;2023-01-04T02:52:16;6.18;;;3.50;;
25449;SDS011;13371;52.080;5.624;2023-01-04T02:54:43;6.25;;;3.97;;
25449;SDS011;13371;52.080;5.624;2023-01-04T03:00:06;5.65;;;3.50;;
25449;SDS011;13371;52.080;5.624;2023-01-04T03:03:08;4.72;;;3.63;;
25449;SDS011;13371;52.080;5.624;2023-01-04T03:06:10;6.63;;;4.45;;
25449;SDS011;13371;52.080;5.624;2023-01-04T03:11:48;4.38;;;3.35;;
25449;SDS011;13371;52.080;5.624;2023-01-04T03:14:38;6.50;;;3.42;;
25449;SDS011;13371;52.080;5.624;2023-01-04T03:17:12;8.40;;;3.50;;
25449;SDS011;13371;52.080;5.624;2023-01-04T03:19:41;4.68;;;3.20;;
25449;SDS011;13371;52.080;5.624;2023-01-04T03:22:26;4.40;;;3.03;;
25449;SDS011;13371;52.080;5.624;2023-01-04T03:25:29;5.18;;;3.78;;
25449;SDS011;13371;52.080;5.624;2023-01-04T03:28:16;4.40;;;3.05;;
25449;SDS011;13371;52.080;5.624;2023-01-04T03:31:10;9.40;;;3.55;;
25449;SDS011;13371;52.080;5.624;2023-01-04T03:33:59;5.22;;;3.85;;
25449;SDS011;13371;52.080;5.624;2023-01-04T03:36:50;3.53;;;2.90;;
25449;SDS011;13371;52.080;5.624;2023-01-04T03:45:19;7.00;;;3.25;;
25449;SDS011;13371;52.080;5.624;2023-01-04T03:48:15;5.60;;;4.32;;
25449;SDS011;13371;52.080;5.624;2023-01-04T03:50:55;7.43;;;3.90;;
25449;SDS011;13371;52.080;5.624;2023-01-04T03:53:24;4.40;;;3.43;;
25449;SDS011;13371;52.080;5.624;2023-01-04T03:55:51;9.20;;;3.85;;
25449;SDS011;13371;52.080;5.624;2023-01-04T03:58:18;6.10;;;4.43;;
25449;SDS011;13371;52.080;5.624;2023-01-04T04:00:45;7.72;;;4.15;;
25449;SDS011;13371;52.080;5.624;2023-01-04T04:03:11;7.95;;;4.72;;
25449;SDS011;13371;52.080;5.624;2023-01-04T04:05:38;6.22;;;4.32;;
25449;SDS011;13371;52.080;5.624;2023-01-04T04:08:24;5.55;;;3.92;;
25449;SDS011;13371;52.080;5.624;2023-01-04T04:10:53;6.75;;;4.45;;
25449;SDS011;13371;52.080;5.624;2023-01-04T04:13:21;7.70;;;4.80;;
25449;SDS011;13371;52.080;5.624;2023-01-04T04:15:47;6.82;;;4.53;;
25449;SDS011;13371;52.080;5.624;2023-01-04T04:18:13;6.35;;;5.25;;
25449;SDS011;13371;52.080;5.624;2023-01-04T04:20:38;8.32;;;4.88;;
25449;SDS011;13371;52.080;5.624;2023-01-04T04:23:04;6.32;;;4.90;;
25449;SDS011;13371;52.080;5.624;2023-01-04T04:25:30;6.10;;;4.50;;
25449;SDS011;13371;52.080;5.624;2023-01-04T04:27:55;5.78;;;4.55;;
25449;SDS011;13371;52.080;5.624;2023-01-04T04:30:21;7.43;;;4.53;;
25449;SDS011;13371;52.080;5.624;2023-01-04T04:32:46;5.68;;;4.25;;
25449;SDS011;13371;52.080;5.624;2023-01-04T04:35:12;4.93;;;4.15;;
25449;SDS011;13371;52.080;5.624;2023-01-04T04:37:37;6.50;;;4.45;;
25449;SDS011;13371;52.080;5.624;2023-01-04T04:40:04;6.30;;;4.50;;
25449;SDS011;13371;52.080;5.624;2023-01-04T04:42:30;6.25;;;4.07;;
25449;SDS011;13371;52.080;5.624;2023-01-04T04:44:55;6.07;;;3.67;;
25449;SDS011;13371;52.080;5.624;2023-01-04T04:47:21;6.20;;;4.72;;
25449;SDS011;13371;52.080;5.624;2023-01-04T04:49:47;4.32;;;3.88;;
25449;SDS011;13371;52.080;5.624;2023-01-04T04:52:12;6.07;;;4.63;;
25449;SDS011;13371;52.080;5.624;2023-01-04T04:54:38;6.68;;;3.88;;
25449;SDS011;13371;52.080;5.624;2023-01-04T04:57:03;6.93;;;4.10;;
25449;SDS011;13371;52.080;5.624;2023-01-04T04:59:30;5.93;;;4.72;;
25449;SDS011;13371;52.080;5.624;2023-01-04T05:01:55;3.55;;;3.05;;
25449;SDS011;13371;52.080;5.624;2023-01-04T05:04:21;5.82;;;4.45;;
25449;SDS011;13371;52.080;5.624;2023-01-04T05:06:47;6.82;;;4.43;;
25449;SDS011;13371;52.080;5.624;2023-01-04T05:09:14;5.10;;;4.25;;
25449;SDS011;13371;52.080;5.624;2023-01-04T05:11:39;5.97;;;4.53;;
25449;SDS011;13371;52.080;5.624;2023-01-04T05:14:23;6.80;;;4.82;;
25449;SDS011;13371;52.080;5.624;2023-01-04T05:16:49;7.63;;;4.47;;
25449;SDS011;13371;52.080;5.624;2023-01-04T05:19:15;6.80;;;5.28;;
25449;SDS011;13371;52.080;5.624;2023-01-04T05:21:40;5.90;;;4.68;;
25449;SDS011;13371;52.080;5.624;2023-01-04T05:24:07;6.13;;;5.22;;
25449;SDS011;13371;52.080;5.624;2023-01-04T05:26:33;8.73;;;5.53;;
25449;SDS011;13371;52.080;5.624;2023-01-04T05:28:59;10.00;;;6.03;;
25449;SDS011;13371;52.080;5.624;2023-01-04T05:31:24;7.95;;;5.88;;
25449;SDS011;13371;52.080;5.624;2023-01-04T05:33:50;6.53;;;5.47;;
25449;SDS011;13371;52.080;5.624;2023-01-04T05:36:16;7.68;;;5.72;;
25449;SDS011;13371;52.080;5.624;2023-01-04T05:38:41;6.82;;;5.95;;
25449;SDS011;13371;52.080;5.624;2023-01-04T05:41:07;8.15;;;5.03;;
25449;SDS011;13371;52.080;5.624;2023-01-04T05:43:53;7.72;;;5.90;;
25449;SDS011;13371;52.080;5.624;2023-01-04T05:46:18;7.60;;;5.13;;
25449;SDS011;13371;52.080;5.624;2023-01-04T05:48:44;7.82;;;6.38;;
25449;SDS011;13371;52.080;5.624;2023-01-04T05:51:09;7.95;;;5.68;;
25449;SDS011;13371;52.080;5.624;2023-01-04T05:53:35;9.60;;;6.22;;
25449;SDS011;13371;52.080;5.624;2023-01-04T05:56:00;7.55;;;5.90;;
25449;SDS011;13371;52.080;5.624;2023-01-04T05:58:26;7.65;;;6.05;;
25449;SDS011;13371;52.080;5.624;2023-01-04T06:00:52;7.78;;;5.93;;
25449;SDS011;13371;52.080;5.624;2023-01-04T06:03:18;7.10;;;6.05;;
25449;SDS011;13371;52.080;5.624;2023-01-04T06:05:47;6.95;;;5.88;;
25449;SDS011;13371;52.080;5.624;2023-01-04T06:08:13;7.57;;;5.80;;
25449;SDS011;13371;52.080;5.624;2023-01-04T06:10:39;8.07;;;5.47;;
25449;SDS011;13371;52.080;5.624;2023-01-04T06:13:05;7.05;;;5.15;;
25449;SDS011;13371;52.080;5.624;2023-01-04T06:15:30;8.32;;;5.65;;
25449;SDS011;13371;52.080;5.624;2023-01-04T06:17:56;9.27;;;5.60;;
25449;SDS011;13371;52.080;5.624;2023-01-04T06:20:21;7.80;;;5.25;;
25449;SDS011;13371;52.080;5.624;2023-01-04T06:22:47;7.53;;;5.30;;
25449;SDS011;13371;52.080;5.624;2023-01-04T06:25:12;6.30;;;4.90;;
25449;SDS011;13371;52.080;5.624;2023-01-04T06:27:38;6.30;;;4.80;;
25449;SDS011;13371;52.080;5.624;2023-01-04T06:30:03;6.88;;;4.80;;
25449;SDS011;13371;52.080;5.624;2023-01-04T06:32:29;7.00;;;4.57;;
25449;SDS011;13371;52.080;5.624;2023-01-04T06:34:55;8.88;;;5.35;;
25449;SDS011;13371;52.080;5.624;2023-01-04T06:37:20;7.80;;;4.85;;
25449;SDS011;13371;52.080;5.624;2023-01-04T06:39:46;6.85;;;5.68;;
25449;SDS011;13371;52.080;5.624;2023-01-04T06:42:12;7.20;;;5.60;;
25449;SDS011;13371;52.080;5.624;2023-01-04T06:44:56;8.18;;;6.03;;
25449;SDS011;13371;52.080;5.624;2023-01-04T06:47:21;7.47;;;6.05;;
25449;SDS011;13371;52.080;5.624;2023-01-04T06:49:47;7.68;;;5.50;;
25449;SDS011;13371;52.080;5.624;2023-01-04T06:52:13;8.60;;;5.75;;
25449;SDS011;13371;52.080;5.624;2023-01-04T06:54:38;8.48;;;5.80;;
25449;SDS011;13371;52.080;5.624;2023-01-04T06:57:04;8.07;;;6.00;;
25449;SDS011;13371;52.080;5.624;2023-01-04T06:59:29;8.15;;;6.05;;
25449;SDS011;13371;52.080;5.624;2023-01-04T07:01:55;10.18;;;6.97;;
25449;SDS011;13371;52.080;5.624;2023-01-04T07:04:20;8.95;;;5.90;;
25449;SDS011;13371;52.080;5.624;2023-01-04T07:06:46;7.68;;;5.82;;
25449;SDS011;13371;52.080;5.624;2023-01-04T07:09:11;8.30;;;5.85;;
25449;SDS011;13371;52.080;5.624;2023-01-04T07:11:37;11.70;;;7.70;;
25449;SDS011;13371;52.080;5.624;2023-01-04T07:14:02;8.80;;;6.78;;
25449;SDS011;13371;52.080;5.624;2023-01-04T07:16:28;8.88;;;5.75;;
25449;SDS011;13371;52.080;5.624;2023-01-04T07:18:53;10.88;;;7.05;;
25449;SDS011;13371;52.080;5.624;2023-01-04T07:21:19;8.57;;;5.60;;
25449;SDS011;13371;52.080;5.624;2023-01-04T07:23:44;12.32;;;6.10;;
25449;SDS011;13371;52.080;5.624;2023-01-04T07:26:10;9.32;;;6.60;;
25449;SDS011;13371;52.080;5.624;2023-01-04T07:28:36;9.00;;;6.53;;
25449;SDS011;13371;52.080;5.624;2023-01-04T07:31:20;9.68;;;6.47;;
25449;SDS011;13371;52.080;5.624;2023-01-04T07:33:47;9.27;;;5.88;;
25449;SDS011;13371;52.080;5.624;2023-01-04T07:36:13;9.70;;;5.22;;
25449;SDS011;13371;52.080;5.624;2023-01-04T07:38:39;8.80;;;5.97;;
25449;SDS011;13371;52.080;5.624;2023-01-04T07:41:04;9.13;;;5.40;;
25449;SDS011;13371;52.080;5.624;2023-01-04T07:43:30;6.68;;;5.50;;
25449;SDS011;13371;52.080;5.624;2023-01-04T07:45:56;8.00;;;6.15;;
25449;SDS011;13371;52.080;5.624;2023-01-04T07:48:21;12.15;;;5.07;;
25449;SDS011;13371;52.080;5.624;2023-01-04T07:50:47;10.40;;;5.05;;
25449;SDS011;13371;52.080;5.624;2023-01-04T07:53:14;9.63;;;5.63;;
25449;SDS011;13371;52.080;5.624;2023-01-04T07:55:39;9.65;;;4.97;;
25449;SDS011;13371;52.080;5.624;2023-01-04T07:58:05;10.48;;;6.07;;
25449;SDS011;13371;52.080;5.624;2023-01-04T08:00:30;8.80;;;4.55;;
25449;SDS011;13371;52.080;5.624;2023-01-04T08:02:56;11.68;;;5.05;;
25449;SDS011;13371;52.080;5.624;2023-01-04T08:05:21;8.30;;;3.80;;
25449;SDS011;13371;52.080;5.624;2023-01-04T08:07:49;6.70;;;4.75;;
25449;SDS011;13371;52.080;5.624;2023-01-04T08:10:15;10.30;;;5.20;;
25449;SDS011;13371;52.080;5.624;2023-01-04T08:12:41;8.07;;;4.65;;
25449;SDS011;13371;52.080;5.624;2023-01-04T08:15:06;6.72;;;4.68;;
25449;SDS011;13371;52.080;5.624;2023-01-04T08:17:32;10.20;;;4.88;;
25449;SDS011;13371;52.080;5.624;2023-01-04T08:19:58;9.43;;;4.82;;
25449;SDS011;13371;52.080;5.624;2023-01-04T08:22:25;6.35;;;4.28;;
25449;SDS011;13371;52.080;5.624;2023-01-04T08:24:51;12.27;;;4.45;;
25449;SDS011;13371;52.080;5.624;2023-01-04T08:27:16;5.90;;;3.97;;
25449;SDS011;13371;52.080;5.624;2023-01-04T08:29:42;7.32;;;4.13;;
25449;SDS011;13371;52.080;5.624;2023-01-04T08:32:07;10.32;;;4.57;;
25449;SDS011;13371;52.080;5.624;2023-01-04T08:34:33;6.93;;;4.07;;
25449;SDS011;13371;52.080;5.624;2023-01-04T08:36:59;5.85;;;3.40;;
25449;SDS011;13371;52.080;5.624;2023-01-04T08:39:24;8.68;;;4.38;;
25449;SDS011;13371;52.080;5.624;2023-01-04T08:41:52;7.07;;;3.85;;
25449;SDS011;13371;52.080;5.624;2023-01-04T08:44:22;5.88;;;4.03;;
25449;SDS011;13371;52.080;5.624;2023-01-04T08:46:49;6.47;;;4.45;;
25449;SDS011;13371;52.080;5.624;2023-01-04T08:49:16;5.97;;;3.75;;
25449;SDS011;13371;52.080;5.624;2023-01-04T08:51:42;7.60;;;4.47;;
25449;SDS011;13371;52.080;5.624;2023-01-04T08:54:08;7.72;;;5.07;;
25449;SDS011;13371;52.080;5.624;2023-01-04T08:56:34;4.80;;;3.78;;
25449;SDS011;13371;52.080;5.624;2023-01-04T08:59:00;5.57;;;3.70;;
25449;SDS011;13371;52.080;5.624;2023-01-04T09:01:26;5.25;;;4.03;;
25449;SDS011;13371;52.080;5.624;2023-01-04T09:03:52;10.00;;;4.32;;
25449;SDS011;13371;52.080;5.624;2023-01-04T09:06:20;5.75;;;3.83;;
25449;SDS011;13371;52.080;5.624;2023-01-04T09:08:46;5.35;;;4.10;;
25449;SDS011;13371;52.080;5.624;2023-01-04T09:11:12;4.50;;;3.30;;
25449;SDS011;13371;52.080;5.624;2023-01-04T09:13:39;5.15;;;3.80;;
25449;SDS011;13371;52.080;5.624;2023-01-04T09:16:06;7.68;;;4.90;;
25449;SDS011;13371;52.080;5.624;2023-01-04T09:18:34;5.00;;;4.28;;
25449;SDS011;13371;52.080;5.624;2023-01-04T09:21:21;7.03;;;4.03;;
25449;SDS011;13371;52.080;5.624;2023-01-04T09:23:45;7.40;;;4.25;;
25449;SDS011;13371;52.080;5.624;2023-01-04T09:26:13;5.68;;;3.88;;
25449;SDS011;13371;52.080;5.624;2023-01-04T09:28:40;7.05;;;4.30;;
25449;SDS011;13371;52.080;5.624;2023-01-04T09:31:08;5.97;;;4.25;;
25449;SDS011;13371;52.080;5.624;2023-01-04T09:33:37;5.95;;;3.83;;
25449;SDS011;13371;52.080;5.624;2023-01-04T09:36:04;7.68;;;4.30;;
25449;SDS011;13371;52.080;5.624;2023-01-04T09:38:31;6.10;;;4.10;;
25449;SDS011;13371;52.080;5.624;2023-01-04T09:43:43;5.65;;;3.25;;
25449;SDS011;13371;52.080;5.624;2023-01-04T09:46:10;11.65;;;4.10;;
25449;SDS011;13371;52.080;5.624;2023-01-04T09:48:39;5.22;;;4.00;;
25449;SDS011;13371;52.080;5.624;2023-01-04T09:51:11;4.78;;;3.45;;
25449;SDS011;13371;52.080;5.624;2023-01-04T09:53:45;5.35;;;3.47;;
25449;SDS011;13371;52.080;5.624;2023-01-04T09:56:28;4.20;;;2.88;;
25449;SDS011;13371;52.080;5.624;2023-01-04T09:58:57;6.20;;;3.47;;
25449;SDS011;13371;52.080;5.624;2023-01-04T10:01:27;5.18;;;3.17;;
25449;SDS011;13371;52.080;5.624;2023-01-04T10:03:59;7.10;;;3.83;;
25449;SDS011;13371;52.080;5.624;2023-01-04T10:06:30;6.00;;;3.63;;
25449;SDS011;13371;52.080;5.624;2023-01-04T10:09:00;5.93;;;3.75;;
25449;SDS011;13371;52.080;5.624;2023-01-04T10:11:46;5.32;;;3.30;;
25449;SDS011;13371;52.080;5.624;2023-01-04T10:17:19;8.98;;;4.32;;
25449;SDS011;13371;52.080;5.624;2023-01-04T10:20:07;5.68;;;3.28;;
25449;SDS011;13371;52.080;5.624;2023-01-04T10:23:07;7.68;;;3.42;;
25449;SDS011;13371;52.080;5.624;2023-01-04T10:25:56;6.00;;;3.70;;
25449;SDS011;13371;52.080;5.624;2023-01-04T10:28:31;5.18;;;3.80;;
25449;SDS011;13371;52.080;5.624;2023-01-04T10:33:51;7.47;;;3.92;;
25449;SDS011;13371;52.080;5.624;2023-01-04T10:36:40;7.75;;;4.10;;
25449;SDS011;13371;52.080;5.624;2023-01-04T10:39:14;6.32;;;4.00;;
25449;SDS011;13371;52.080;5.624;2023-01-04T10:41:53;7.05;;;3.50;;
25449;SDS011;13371;52.080;5.624;2023-01-04T10:47:02;4.60;;;3.30;;
25449;SDS011;13371;52.080;5.624;2023-01-04T10:49:57;4.13;;;3.00;;
25449;SDS011;13371;52.080;5.624;2023-01-04T10:52:40;4.55;;;3.33;;
25449;SDS011;13371;52.080;5.624;2023-01-04T10:57:44;5.35;;;3.47;;
25449;SDS011;13371;52.080;5.624;2023-01-04T11:00:22;4.00;;;3.10;;
25449;SDS011;13371;52.080;5.624;2023-01-04T11:02:55;5.90;;;3.38;;
25449;SDS011;13371;52.080;5.624;2023-01-04T11:05:36;4.95;;;2.70;;
25449;SDS011;13371;52.080;5.624;2023-01-04T11:08:12;7.15;;;2.90;;
25449;SDS011;13371;52.080;5.624;2023-01-04T11:10:50;4.97;;;2.50;;
25449;SDS011;13371;52.080;5.624;2023-01-04T11:13:16;3.28;;;2.30;;
25449;SDS011;13371;52.080;5.624;2023-01-04T11:15:42;3.25;;;2.00;;
25449;SDS011;13371;52.080;5.624;2023-01-04T11:18:09;3.42;;;2.22;;
25449;SDS011;13371;52.080;5.624;2023-01-04T11:20:38;3.42;;;2.38;;
25449;SDS011;13371;52.080;5.624;2023-01-04T11:25:38;5.35;;;2.50;;
25449;SDS011;13371;52.080;5.624;2023-01-04T11:28:14;3.63;;;2.28;;
25449;SDS011;13371;52.080;5.624;2023-01-04T11:30:47;4.40;;;2.13;;
25449;SDS011;13371;52.080;5.624;2023-01-04T11:33:18;2.92;;;1.95;;
25449;SDS011;13371;52.080;5.624;2023-01-04T11:38:27;3.40;;;1.90;;
25449;SDS011;13371;52.080;5.624;2023-01-04T11:41:03;6.55;;;2.33;;
25449;SDS011;13371;52.080;5.624;2023-01-04T11:43:32;4.82;;;2.30;;
25449;SDS011;13371;52.080;5.624;2023-01-04T11:46:03;3.45;;;2.45;;
25449;SDS011;13371;52.080;5.624;2023-01-04T11:48:32;4.45;;;2.70;;
25449;SDS011;13371;52.080;5.624;2023-01-04T11:51:00;5.13;;;3.30;;
25449;SDS011;13371;52.080;5.624;2023-01-04T11:56:11;9.43;;;3.15;;
25449;SDS011;13371;52.080;5.624;2023-01-04T11:58:37;4.63;;;2.70;;
25449;SDS011;13371;52.080;5.624;2023-01-04T12:01:03;5.45;;;3.45;;
25449;SDS011;13371;52.080;5.624;2023-01-04T12:03:30;4.28;;;3.03;;
25449;SDS011;13371;52.080;5.624;2023-01-04T12:05:56;8.02;;;3.60;;
25449;SDS011;13371;52.080;5.624;2023-01-04T12:08:33;5.22;;;3.85;;
25449;SDS011;13371;52.080;5.624;2023-01-04T12:11:01;5.70;;;2.83;;
25449;SDS011;13371;52.080;5.624;2023-01-04T12:13:29;5.90;;;2.88;;
25449;SDS011;13371;52.080;5.624;2023-01-04T12:16:01;4.82;;;2.50;;
25449;SDS011;13371;52.080;5.624;2023-01-04T12:18:53;5.97;;;3.33;;
25449;SDS011;13371;52.080;5.624;2023-01-04T12:21:20;9.02;;;3.67;;
25449;SDS011;13371;52.080;5.624;2023-01-04T12:23:47;4.65;;;2.88;;
25449;SDS011;13371;52.080;5.624;2023-01-04T12:26:14;8.30;;;2.95;;
25449;SDS011;13371;52.080;5.624;2023-01-04T12:28:45;7.28;;;3.83;;
25449;SDS011;13371;52.080;5.624;2023-01-04T12:33:53;10.70;;;3.17;;
25449;SDS011;13371;52.080;5.624;2023-01-04T12:44:28;8.52;;;3.72;;
25449;SDS011;13371;52.080;5.624;2023-01-04T12:47:00;7.45;;;3.08;;
25449;SDS011;13371;52.080;5.624;2023-01-04T12:50:04;6.85;;;3.20;;
25449;SDS011;13371;52.080;5.624;2023-01-04T12:52:54;9.95;;;3.45;;
25449;SDS011;13371;52.080;5.624;2023-01-04T12:57:56;9.88;;;2.95;;
25449;SDS011;13371;52.080;5.624;2023-01-04T13:08:14;10.27;;;2.92;;
25449;SDS011;13371;52.080;5.624;2023-01-04T13:10:46;7.82;;;2.90;;
25449;SDS011;13371;52.080;5.624;2023-01-04T13:23:54;8.90;;;2.30;;
25449;SDS011;13371;52.080;5.624;2023-01-04T13:26:25;9.35;;;1.90;;
25449;SDS011;13371;52.080;5.624;2023-01-04T13:29:04;7.53;;;1.73;;
25449;SDS011;13371;52.080;5.624;2023-01-04T13:36:58;9.75;;;2.10;;
25449;SDS011;13371;52.080;5.624;2023-01-04T13:39:26;4.07;;;1.50;;
25449;SDS011;13371;52.080;5.624;2023-01-04T13:41:52;13.82;;;2.55;;
25449;SDS011;13371;52.080;5.624;2023-01-04T13:47:19;4.65;;;1.75;;
25449;SDS011;13371;52.080;5.624;2023-01-04T13:49:45;9.57;;;1.85;;
25449;SDS011;13371;52.080;5.624;2023-01-04T13:52:23;5.28;;;1.77;;
25449;SDS011;13371;52.080;5.624;2023-01-04T13:54:50;6.88;;;2.17;;
25449;SDS011;13371;52.080;5.624;2023-01-04T13:57:16;10.40;;;1.80;;
25449;SDS011;13371;52.080;5.624;2023-01-04T13:59:48;14.32;;;2.00;;
25449;SDS011;13371;52.080;5.624;2023-01-04T14:02:21;11.30;;;2.00;;
25449;SDS011;13371;52.080;5.624;2023-01-04T14:04:47;14.63;;;2.60;;
25449;SDS011;13371;52.080;5.624;2023-01-04T14:07:20;13.77;;;2.00;;
25449;SDS011;13371;52.080;5.624;2023-01-04T14:09:48;5.97;;;1.27;;
25449;SDS011;13371;52.080;5.624;2023-01-04T14:12:22;10.27;;;2.08;;
25449;SDS011;13371;52.080;5.624;2023-01-04T14:14:54;8.07;;;1.50;;
25449;SDS011;13371;52.080;5.624;2023-01-04T14:20:29;12.57;;;2.38;;
25449;SDS011;13371;52.080;5.624;2023-01-04T14:36:24;8.80;;;1.73;;
25449;SDS011;13371;52.080;5.624;2023-01-04T14:46:47;10.02;;;1.63;;
25449;SDS011;13371;52.080;5.624;2023-01-04T14:49:14;12.40;;;1.67;;
25449;SDS011;13371;52.080;5.624;2023-01-04T14:51:41;9.35;;;1.45;;
25449;SDS011;13371;52.080;5.624;2023-01-04T14:54:12;12.63;;;1.92;;
25449;SDS011;13371;52.080;5.624;2023-01-04T14:56:39;10.90;;;1.55;;
25449;SDS011;13371;52.080;5.624;2023-01-04T14:59:05;7.40;;;1.38;;
25449;SDS011;13371;52.080;5.624;2023-01-04T15:01:32;11.05;;;1.83;;
25449;SDS011;13371;52.080;5.624;2023-01-04T15:03:58;6.55;;;1.92;;
25449;SDS011;13371;52.080;5.624;2023-01-04T15:06:24;16.55;;;2.35;;
25449;SDS011;13371;52.080;5.624;2023-01-04T15:08:50;13.52;;;1.83;;
25449;SDS011;13371;52.080;5.624;2023-01-04T15:11:16;9.95;;;1.70;;
25449;SDS011;13371;52.080;5.624;2023-01-04T15:13:43;13.05;;;2.45;;
25449;SDS011;13371;52.080;5.624;2023-01-04T15:16:13;9.07;;;1.85;;
25449;SDS011;13371;52.080;5.624;2023-01-04T15:18:40;16.42;;;1.85;;
25449;SDS011;13371;52.080;5.624;2023-01-04T15:21:06;11.48;;;2.05;;
25449;SDS011;13371;52.080;5.624;2023-01-04T15:23:33;17.13;;;3.30;;
25449;SDS011;13371;52.080;5.624;2023-01-04T15:25:59;17.90;;;3.85;;
25449;SDS011;13371;52.080;5.624;2023-01-04T15:28:27;13.93;;;2.60;;
25449;SDS011;13371;52.080;5.624;2023-01-04T15:30:53;13.10;;;2.20;;
25449;SDS011;13371;52.080;5.624;2023-01-04T15:33:19;11.25;;;2.28;;
25449;SDS011;13371;52.080;5.624;2023-01-04T15:35:44;13.82;;;2.67;;
25449;SDS011;13371;52.080;5.624;2023-01-04T15:38:10;13.02;;;2.08;;
25449;SDS011;13371;52.080;5.624;2023-01-04T15:40:39;9.38;;;2.03;;
25449;SDS011;13371;52.080;5.624;2023-01-04T15:43:04;8.50;;;2.10;;
25449;SDS011;13371;52.080;5.624;2023-01-04T15:45:33;15.35;;;2.83;;
25449;SDS011;13371;52.080;5.624;2023-01-04T15:48:01;18.92;;;2.80;;
25449;SDS011;13371;52.080;5.624;2023-01-04T15:50:28;19.25;;;2.63;;
25449;SDS011;13371;52.080;5.624;2023-01-04T15:52:55;22.90;;;2.97;;
25449;SDS011;13371;52.080;5.624;2023-01-04T15:55:21;28.08;;;3.35;;
25449;SDS011;13371;52.080;5.624;2023-01-04T15:57:47;21.65;;;3.55;;
25449;SDS011;13371;52.080;5.624;2023-01-04T16:00:13;23.52;;;3.38;;
25449;SDS011;13371;52.080;5.624;2023-01-04T16:02:39;17.27;;;3.40;;
25449;SDS011;13371;52.080;5.624;2023-01-04T16:05:05;22.08;;;3.63;;
25449;SDS011;13371;52.080;5.624;2023-01-04T16:07:31;20.00;;;3.28;;
25449;SDS011;13371;52.080;5.624;2023-01-04T16:09:57;17.30;;;3.42;;
25449;SDS011;13371;52.080;5.624;2023-01-04T16:12:23;22.17;;;3.22;;
25449;SDS011;13371;52.080;5.624;2023-01-04T16:15:11;22.77;;;3.75;;
25449;SDS011;13371;52.080;5.624;2023-01-04T16:17:37;21.65;;;4.20;;
25449;SDS011;13371;52.080;5.624;2023-01-04T16:20:03;30.63;;;4.80;;
25449;SDS011;13371;52.080;5.624;2023-01-04T16:22:29;20.75;;;3.72;;
25449;SDS011;13371;52.080;5.624;2023-01-04T16:24:55;23.00;;;4.47;;
25449;SDS011;13371;52.080;5.624;2023-01-04T16:27:20;22.42;;;3.85;;
25449;SDS011;13371;52.080;5.624;2023-01-04T16:29:47;27.85;;;3.90;;
25449;SDS011;13371;52.080;5.624;2023-01-04T16:32:14;27.25;;;3.85;;
25449;SDS011;13371;52.080;5.624;2023-01-04T16:34:40;24.30;;;3.42;;
25449;SDS011;13371;52.080;5.624;2023-01-04T16:37:06;20.33;;;3.08;;
25449;SDS011;13371;52.080;5.624;2023-01-04T16:39:31;23.23;;;3.92;;
25449;SDS011;13371;52.080;5.624;2023-01-04T16:41:57;24.85;;;3.88;;
25449;SDS011;13371;52.080;5.624;2023-01-04T16:44:22;23.35;;;4.05;;
25449;SDS011;13371;52.080;5.624;2023-01-04T16:46:48;32.60;;;3.97;;
25449;SDS011;13371;52.080;5.624;2023-01-04T16:49:14;24.67;;;3.47;;
25449;SDS011;13371;52.080;5.624;2023-01-04T16:51:42;27.88;;;4.35;;
25449;SDS011;13371;52.080;5.624;2023-01-04T16:54:11;15.35;;;3.88;;
25449;SDS011;13371;52.080;5.624;2023-01-04T16:56:38;17.27;;;2.88;;
25449;SDS011;13371;52.080;5.624;2023-01-04T16:59:04;20.15;;;2.35;;
25449;SDS011;13371;52.080;5.624;2023-01-04T17:01:31;25.27;;;3.78;;
25449;SDS011;13371;52.080;5.624;2023-01-04T17:03:59;18.92;;;3.63;;
25449;SDS011;13371;52.080;5.624;2023-01-04T17:06:28;19.10;;;3.42;;
25449;SDS011;13371;52.080;5.624;2023-01-04T17:08:59;20.92;;;3.42;;